Parmele, North Carolina
Current Conditions -  °F | °C
As of 4:35 PM on Thursday 18 Dec 2014 (Local Time) from KPGV Reporting Station
Broken Clouds Broken Clouds  
Wind Chill: 46°   Ceiling: 10000
Heat Index: 46°   Visibility: 10mi
Dew Point: 30°   Wind: 0mph
Humidity: 53%   Direction: NA
Pressure: 30.11"   Gusts: NA
Location:  35.82°N, 77.31°W
Report Text: KPGV 182135Z AUTO 00000KT 10SM BKN100 08/M01 A3011 RMK AO2
Loading
Personal Weather Stations






























Interactive Weather Map New forecast layout! Learn more

10-Day Weather Forecast

Advertisements
Track Severe Weather on mobile